Flight Track Log - Related Links

Times and Time Zones

All times are in EDT time to prevent confusion due to time zone crossing. See the SWA568 flight status page for this flight to view local times or setup timezone preferences in your user account.

Time Position Orientation Groundspeed Altitude Reporting Facility
EDT Latitude Longitude Course Direction KTS MPH feet Rate Location/Type
Sun 07:21:56 AM 39.1333 -76.7333 180° South 196 226 3,900  Level Potomac TRACON
Sun 07:23:41 AM 39.0361 -76.6283 140° Southeast 275 316 8,300 2,655 Climbing Washington Center
Sun 07:24:41 AM 38.9825 -76.5475 130° Southeast 285 328 11,200 2,331 Climbing Washington Center
Sun 07:25:42 AM 38.9056 -76.5144 162° South 285 328 13,000 1,388 Climbing Washington Center
Sun 07:26:42 AM 38.8181 -76.5108 178° South 306 352 14,000 1,008 Climbing Washington Center
Sun 07:27:00 AM 38.6204 -76.8401 180° South  Level Estimated
Sun 07:27:41 AM 38.7406 -76.5764 213° Southwest 297 342 15,000  Level Washington Center
Sun 07:28:41 AM 38.6628 -76.6419 213° Southwest 317 365 17,600 2,168 Climbing Washington Center
Sun 07:29:40 AM 38.5767 -76.7044 210° Southwest 334 384 19,300 2,300 Climbing Washington Center
Sun 07:30:41 AM 38.4889 -76.7217 189° South 340 391 22,200 1,850 Climbing Washington Center
Sun 07:31:40 AM 38.3869 -76.7069 174° South 351 404 23,000 400 Climbing Washington Center
Sun 07:32:41 AM 38.2850 -76.6894 172° South 356 410 23,000 545 Level Washington Center
Sun 07:33:41 AM 38.1831 -76.6747 174° South 370 426 24,100 1,576 Climbing Washington Center
Sun 07:34:39 AM 38.0767 -76.6628 175° South 380 437 26,100 1,866 Climbing Washington Center
Sun 07:35:40 AM 37.9747 -76.6481 174° South 380 437 27,800 1,610 Climbing Washington Center
Sun 07:36:42 AM 37.8706 -76.6308 173° South 385 443 29,400 1,700 Climbing Washington Center
Sun 07:37:40 AM 37.7683 -76.6217 176° South 385 443 31,200 1,563 Climbing Washington Center
Sun 07:38:41 AM 37.6706 -76.6072 173° South 373 429 32,500 1,059 Climbing Washington Center
Sun 07:39:39 AM 37.5725 -76.5953 174° South 362 417 33,300 857 Climbing Washington Center
Sun 07:40:40 AM 37.4706 -76.5808 174° South 362 417 34,200 787 Climbing Washington Center
Sun 07:41:41 AM 37.3703 -76.5692 175° South 367 422 34,900 393 Climbing Washington Center
Sun 07:42:42 AM 37.2661 -76.5547 174° South 367 422 35,000 50 Climbing Washington Center
Sun 07:43:40 AM 37.1622 -76.5169 164° South 367 422 35,000  Level Washington Center
Sun 07:44:41 AM 37.0692 -76.4197 140° Southeast 392 451 35,000  Level Washington Center
Sun 07:45:41 AM 36.9822 -76.3147 136° Southeast 418 481 35,000  Level Washington Center
Sun 07:46:42 AM 36.8992 -76.2100 135° Southeast 428 493 35,000  Level Washington Center
Sun 07:47:40 AM 36.8056 -76.1858 168° South 393 452 35,000  Level Washington Center
Sun 07:48:41 AM 36.7156 -76.2294 201° Southwest 327 376 35,000  Level Washington Center
Sun 07:49:40 AM 36.6319 -76.2753 204° Southwest 327 376 35,000  Level Washington Center
Sun 07:50:42 AM 36.5419 -76.3158 200° South 338 389 35,000  Level Washington Center
Sun 07:51:39 AM 36.4561 -76.3564 201° Southwest 343 395 35,000  Level Washington Center
Sun 07:52:40 AM 36.3642 -76.3967 199° South 349 402 35,000  Level Washington Center
Sun 07:53:40 AM 36.2719 -76.4422 202° Southwest 349 402 35,000  Level Washington Center
Sun 07:54:42 AM 36.1797 -76.4825 199° South 349 402 35,000  Level Washington Center
Sun 07:55:40 AM 36.0897 -76.5275 202° Southwest 349 402 35,000  Level Washington Center
Sun 07:56:40 AM 35.9978 -76.5703 201° Southwest 349 402 35,000  Level Washington Center
Sun 07:57:42 AM 35.9033 -76.6125 200° South 349 402 35,000  Level Washington Center
Sun 07:58:39 AM 35.8111 -76.6550 200° South 349 402 35,000  Level Washington Center
Sun 07:59:40 AM 35.7211 -76.6972 201° Southwest 349 402 35,000  Level Washington Center
Sun 08:00:41 AM 35.6311 -76.7369 200° South 349 402 35,000  Level Washington Center
Sun 08:01:42 AM 35.5533 -76.7944 211° Southwest 342 394 35,000  Level Washington Center
Sun 08:02:40 AM 35.4919 -76.8753 227° Southwest 327 376 35,000  Level Washington Center
Sun 08:03:41 AM 35.4283 -76.9558 226° Southwest 327 376 35,000  Level Washington Center
Sun 08:04:42 AM 35.3628 -77.0386 226° Southwest 333 383 35,000  Level Washington Center
Sun 08:05:40 AM 35.2992 -77.1164 225° Southwest 333 383 35,000 450 Level Washington Center
Sun 08:06:42 AM 35.2089 -77.1606 202° Southwest 344 396 35,900 492 Climbing Washington Center
Sun 08:07:42 AM 35.1144 -77.1994 199° South 344 396 36,000 50 Climbing Washington Center
Sun 08:08:41 AM 35.0200 -77.2381 199° South 356 410 36,000  Level Washington Center
Sun 08:09:41 AM 34.9236 -77.2767 198° South 356 410 36,000  Level Washington Center
Sun 08:10:42 AM 34.8292 -77.3150 198° South 356 410 36,000  Level Washington Center
Sun 08:11:40 AM 34.7389 -77.3536 199° South 356 410 36,000  Level Washington Center
Sun 08:12:40 AM 34.6444 -77.3894 197° South 356 410 36,000  Level Washington Center
Sun 08:13:41 AM 34.5522 -77.4278 199° South 356 410 36,000  Level Washington Center
Sun 08:14:41 AM 34.4575 -77.4661 198° South 351 404 36,000  Level Washington Center
Sun 08:15:42 AM 34.3611 -77.5042 198° South 351 404 36,000  Level Washington Center
Sun 08:16:40 AM 34.2667 -77.5394 197° South 357 411 36,000  Level Washington Center
Sun 08:17:41 AM 34.1700 -77.5775 198° South 362 417 36,000  Level Washington Center
Sun 08:18:41 AM 34.0714 -77.6153 198° South 367 422 36,000  Level Washington Center
Sun 08:19:03 AM 34.0292 -77.6308 197° South 369 425 36,000  Level Jacksonville Center
Sun 08:20:03 AM 33.9328 -77.6692 198° South 369 425 36,000  Level Jacksonville Center
Sun 08:21:03 AM 33.8361 -77.7072 198° South 375 432 36,000  Level Jacksonville Center
Sun 08:22:03 AM 33.7356 -77.7483 199° South 375 432 36,000  Level Jacksonville Center
Sun 08:23:03 AM 33.6369 -77.7839 197° South 380 437 36,000  Level Jacksonville Center
Sun 08:24:03 AM 33.5386 -77.8244 199° South 380 437 36,000  Level Jacksonville Center
Sun 08:25:03 AM 33.4294 -77.8656 197° South 374 430 36,000  Level Jacksonville Center
Sun 08:26:03 AM 33.3311 -77.9058 199° South 374 430 36,000  Level Jacksonville Center
Sun 08:27:03 AM 33.2322 -77.9436 198° South 374 430 36,000  Level Jacksonville Center
Sun 08:28:03 AM 33.1356 -77.9814 198° South 374 430 36,000  Level Jacksonville Center
Sun 08:29:03 AM 33.0350 -78.0189 197° South 374 430 36,000  Level Jacksonville Center
Sun 08:30:03 AM 32.9361 -78.0542 197° South 374 430 36,000  Level Jacksonville Center
Sun 08:31:03 AM 32.8394 -78.0939 199° South 374 430 36,000  Level Jacksonville Center
Sun 08:32:03 AM 32.7408 -78.1311 198° South 374 430 36,000  Level Jacksonville Center
Sun 08:33:03 AM 32.6419 -78.1683 198° South 374 430 36,000  Level Jacksonville Center
Sun 08:34:03 AM 32.5433 -78.2081 199° South 379 436 36,000  Level Jacksonville Center
Sun 08:35:03 AM 32.4444 -78.2428 197° South 379 436 36,000  Level Jacksonville Center
Sun 08:36:03 AM 32.3458 -78.2847 200° South 374 430 36,000  Level Jacksonville Center
Sun 08:37:03 AM 32.2428 -78.3242 198° South 383 441 36,000  Level Jacksonville Center
Sun 08:38:03 AM 32.1419 -78.3611 197° South 383 441 36,000  Level Jacksonville Center
Sun 08:39:03 AM 32.0408 -78.4003 198° South 383 441 36,000  Level Jacksonville Center
Sun 08:40:03 AM 31.9442 -78.4369 198° South 376 433 36,000  Level Jacksonville Center
Sun 08:41:03 AM 31.8411 -78.4736 197° South 376 433 36,000  Level Jacksonville Center
Sun 08:42:03 AM 31.7400 -78.5128 198° South 382 440 36,000  Level Jacksonville Center
Sun 08:43:03 AM 31.6350 -78.5494 197° South 382 440 36,000  Level Jacksonville Center
Sun 08:44:03 AM 31.5319 -78.5883 198° South 389 448 36,000  Level Jacksonville Center
Sun 08:45:03 AM 31.4247 -78.6297 198° South 394 453 36,000  Level Jacksonville Center
Sun 08:46:03 AM 31.3236 -78.6661 197° South 394 453 36,000  Level Jacksonville Center
Sun 08:47:03 AM 31.2186 -78.7047 197° South 394 453 36,000  Level Jacksonville Center
Sun 08:48:03 AM 31.1133 -78.7433 197° South 394 453 36,000  Level Jacksonville Center
Sun 08:49:03 AM 31.0122 -78.7819 198° South 394 453 36,000  Level Jacksonville Center
Sun 08:50:03 AM 30.9028 -78.8181 196° South 394 453 36,000  Level Jacksonville Center
Sun 08:51:03 AM 30.8039 -78.8611 201° Southwest 394 453 36,000  Level Jacksonville Center
Sun 08:52:03 AM 30.6903 -78.8972 195° South 394 453 36,000  Level Jacksonville Center
Sun 08:53:21 AM 30.5694 -78.9439 198° South 386 444 36,000  Level Miami Center
Sun 08:54:21 AM 30.4647 -78.9825 198° South 394 453 36,000  Level Miami Center
Sun 08:55:21 AM 30.3433 -79.0186 194° South 404 465 36,000  Level Miami Center
Sun 08:56:21 AM 30.2303 -79.0450 191° South 404 465 36,000  Level Miami Center
Sun 08:57:21 AM 30.1192 -79.0742 193° South 410 472 36,000  Level Miami Center
Sun 08:58:21 AM 30.0103 -79.1103 196° South 417 480 36,000  Level Miami Center
Sun 08:59:21 AM 29.8972 -79.1342 190° South 412 474 36,000  Level Miami Center
Sun 09:00:21 AM 29.7864 -79.1606 192° South 407 468 36,000  Level Miami Center
Sun 09:01:21 AM 29.6794 -79.1964 196° South 413 475 36,000  Level Miami Center
Sun 09:02:21 AM 29.5664 -79.2225 191° South 418 481 36,000  Level Miami Center
Sun 09:03:21 AM 29.4617 -79.2561 196° South 407 468 36,000  Level Miami Center
Sun 09:04:21 AM 29.3467 -79.2750 188° South 407 468 36,000  Level Miami Center
Sun 09:05:21 AM 29.2294 -79.3008 191° South 418 481 36,000  Level Miami Center
Sun 09:06:21 AM 29.1264 -79.3342 196° South 412 474 36,000  Level Miami Center
Sun 09:07:21 AM 29.0092 -79.3578 190° South 419 482 36,000  Level Miami Center
Sun 09:08:21 AM 28.8983 -79.3861 193° South 419 482 36,000  Level Miami Center
Sun 09:09:21 AM 28.7850 -79.4142 192° South 413 475 36,000  Level Miami Center
Sun 09:10:21 AM 28.6697 -79.4425 192° South 413 475 36,000  Level Miami Center
Sun 09:11:21 AM 28.5608 -79.4706 193° South 413 475 36,000  Level Miami Center
Sun 09:12:21 AM 28.4475 -79.4986 192° South 413 475 36,000 -150 Level Miami Center
Sun 09:13:21 AM 28.3364 -79.5267 193° South 413 475 35,700 -700 Descending Miami Center
Sun 09:14:21 AM 28.2253 -79.5525 192° South 413 475 34,600 -1,000 Descending Miami Center
Sun 09:15:21 AM 28.1119 -79.5825 193° South 413 475 33,700 -900 Descending Miami Center
Sun 09:16:21 AM 27.9967 -79.6103 192° South 413 475 32,800 -900 Descending Miami Center
Sun 09:17:21 AM 27.8814 -79.6381 192° South 419 482 31,900 -900 Descending Miami Center
Sun 09:18:21 AM 27.7658 -79.6658 192° South 419 482 31,000 -900 Descending Miami Center
Sun 09:19:21 AM 27.6464 -79.6958 193° South 433 498 30,100 -850 Descending Miami Center
Sun 09:20:21 AM 27.5247 -79.7231 191° South 441 507 29,300 -1,950 Descending Miami Center
Sun 09:21:21 AM 27.4136 -79.7508 193° South 452 520 26,200 -2,650 Descending Miami Center
Sun 09:22:21 AM 27.2900 -79.7664 186° South 452 520 24,000 -2,300 Descending Miami Center
Sun 09:23:21 AM 27.1633 -79.7328 167° South 427 491 21,600 -2,300 Descending Miami Center
Sun 09:24:21 AM 27.0511 -79.6975 164° South 427 491 19,400 -2,250 Descending Miami Center
Sun 09:25:21 AM 26.9392 -79.6622 164° South 427 491 17,100 -2,250 Descending Miami Center
Sun 09:26:21 AM 26.8392 -79.6481 173° South 409 471 14,900 -1,750 Descending Miami Center
Sun 09:27:21 AM 26.7317 -79.6897 199° South 376 433 13,600 -1,794 Descending Miami Center
Sun 09:28:08 AM 26.6536 -79.7319 206° Southwest 361 415 11,700 -2,333 Descending Miami Center
Sun 09:28:33 AM 26.6200 -79.7475 202° Southwest 360 414 10,800 -2,137 Descending Miami Center
Sun 09:29:21 AM 26.5483 -79.7806 202° Southwest 362 417 9,100 -1,500 Descending Miami Center
Sun 09:30:21 AM 26.4661 -79.8181 202° Southwest 340 391 8,100 -550 Descending Miami Center
Sun 09:31:21 AM 26.3922 -79.8533 203° Southwest 311 358 8,000 -50 Descending Miami Center
Sun 09:32:21 AM 26.3347 -79.9028 218° Southwest 289 333 8,000  Level Miami Center
Sun 09:33:21 AM 26.2731 -79.9614 220° Southwest 283 326 8,000 -500 Level Miami Center
Sun 09:34:21 AM 26.2258 -80.0136 225° Southwest 278 320 7,000 -500 Descending Miami Center
Sun 09:35:21 AM 26.1767 -80.0722 227° Southwest 266 306 7,000 -50 Level Miami Center
Sun 09:36:21 AM 26.1539 -80.1503 252° West 258 297 6,900 -300 Descending Miami Center
Sun 09:37:21 AM 26.1503 -80.2244 267° West 247 284 6,400 -675 Descending Miami Center
Sun 09:37:41 AM 26.1475 -80.2567 265° West 221 254 6,000 -296 Descending Miami Center
Sun 09:38:42 AM 26.1478 -80.3283 270° West 231 266 6,000 -694 Level Miami Center
Sun 09:39:42 AM 26.1294 -80.3950 253° West 242 278 4,600 -1,240 Descending Miami Center
Sun 09:40:43 AM 26.0781 -80.3611 149° Southeast 238 274 3,500 -1,230 Descending Miami Center
Sun 09:41:44 AM 26.0756 -80.2964 92° East 208 239 2,100 -1,131 Descending Miami Center
Sun 09:42:45 AM 26.0747 -80.2383 91° East 154 177 1,200 -787 Descending Miami Center
Sun 09:43:46 AM 26.0736 -80.1944 92° East 136 157 500 -689 Descending Miami Center
Sun 09:45:00 AM 26.0667 -80.1500 103° East  Level FlightAware Approximate
Sun 09:52:00 AM 26.0726 -80.1527 103° East  Level Estimated

Login

Don't have an account? Register now (free) for customized features, flight alerts, and more!